Aérodrome :
LOGIN :

S'inscrire | Disclaimer

   EN    FR    IT 

 










Légende :    VFR   VFR Marginal   IFR   IFR Intensif   IFR Très Intensif
Visi : 
Plafond : 
>= 8 km
>= 3000ft
5 à 8 km
1000 à 3000 ft
1500m à 5 km
500 à 1000 ft
800 à 1500m
200 à 500 ft
< 800m
< 200 ft
Symboles :   Orages  Brouillard  Fortes neiges  Fortes précipitations  Vent > 20 kt
SIGMETs :   Divers  Orages  Givrage  Turbulence  Onde Orograph.  Cendres Volcan.







- Altitude de l'aérodrome : 296 ft
- Code IATA : GKE


ETNG - Geilenkirchen

DERNIER METAR :
  • 191150Z 24007KT 9999 FEW013 BKN016 BKN030 19/16 Q1024 NOSIG

METARs EXPIRÉS :
  • 191111Z 26007KT 9999 FEW013 BKN017 BKN030 20/16 Q1024 NOSIG
  • 191050Z 25008KT 9999 -DZ FEW012 BKN015 BKN026 19/16 Q1024 NOSIG
  • 190950Z 25008KT 9999 FEW011 BKN015 BKN020 19/15 Q1024 NOSIG

TAF TAF ETNG
Valide du 19 à 12h jusqu'au 20 à 03h UTC


191100Z 1912/2003 26009G15KT 9999 BKN018
PROB40
TEMPO 1912/2003 -RADZ
BECMG 1916/1918 VRB03KT
Pas de NOTAMs connus pour ce terrain.



MET'MAP, la Météo Aéronautique d'un coup d'oeil ! - Copyright ORBIFLY Décembre 2007 - Disclaimer

ORBIFLY MET'MAP TEAM :

Programmation & Développement : Alexandra Zaïnal
Conception & Développement : Baudouin d'Aumeries
Co-Programmation & Développement : Marc-Olivier Méhu
Soutien technique & logistique : Manuel Goepfert

Contact : metmap@orbifly.com




SOURCES & CREDITS :

   NOAA